createdAt,value
2018-09-15T00:02:26.531Z,15.30
2018-09-15T00:04:56.852Z,15.30
2018-09-15T00:07:26.081Z,15.20
2018-09-15T00:09:56.518Z,15.30
2018-09-15T00:12:27.414Z,15.20
2018-09-15T00:14:57.545Z,15.10
2018-09-15T00:17:28.684Z,15.10
2018-09-15T00:19:57.818Z,15.10
2018-09-15T00:22:27.061Z,15.10
2018-09-15T00:24:56.201Z,15.10
2018-09-15T00:27:25.511Z,14.90
2018-09-15T00:29:55.453Z,14.90
2018-09-15T00:32:24.541Z,14.90
2018-09-15T00:34:53.650Z,14.90
2018-09-15T00:37:24.422Z,14.90
2018-09-15T00:40:02.228Z,14.90
2018-09-15T00:42:31.366Z,14.80
2018-09-15T00:45:00.558Z,14.80
2018-09-15T00:47:29.727Z,14.80
2018-09-15T00:49:58.805Z,14.70
2018-09-15T00:52:35.574Z,14.70
2018-09-15T00:55:04.702Z,14.60
2018-09-15T00:57:33.826Z,14.60
2018-09-15T01:00:03.249Z,14.60
2018-09-15T01:02:39.275Z,14.60
2018-09-15T01:05:08.501Z,14.50
2018-09-15T01:07:37.797Z,14.50
2018-09-15T01:10:07.055Z,14.50
2018-09-15T01:12:36.410Z,14.40
2018-09-15T01:15:06.674Z,14.30
2018-09-15T01:17:36.579Z,14.30
2018-09-15T01:20:07.933Z,14.20
2018-09-15T01:22:39.087Z,14.20
2018-09-15T01:25:08.388Z,14.20
2018-09-15T01:27:38.861Z,14.10
2018-09-15T01:30:12.535Z,14.10
2018-09-15T01:32:41.878Z,14.10
2018-09-15T01:35:11.137Z,14.10
2018-09-15T01:37:40.500Z,14.20
2018-09-15T01:40:09.628Z,14.10
2018-09-15T01:42:38.847Z,14.10
2018-09-15T01:45:08.127Z,14.00
2018-09-15T01:47:37.530Z,13.90
2018-09-15T01:50:07.722Z,13.80
2018-09-15T01:52:37.120Z,13.80
2018-09-15T01:55:06.237Z,13.80
2018-09-15T01:57:36.716Z,13.80
2018-09-15T02:00:05.712Z,13.70
2018-09-15T02:02:37.268Z,13.80
2018-09-15T02:05:08.006Z,13.80
2018-09-15T02:07:37.983Z,13.80
2018-09-15T02:10:08.386Z,13.80
2018-09-15T02:12:37.611Z,13.80
2018-09-15T02:15:07.193Z,13.80
2018-09-15T02:17:36.576Z,13.90
2018-09-15T02:20:06.292Z,13.90
2018-09-15T02:22:35.536Z,13.90
2018-09-15T02:25:06.271Z,13.90
2018-09-15T02:27:35.595Z,13.90
2018-09-15T02:30:04.952Z,13.90
2018-09-15T02:32:34.241Z,13.90
2018-09-15T02:35:03.540Z,14.00
2018-09-15T02:37:34.266Z,13.90
2018-09-15T02:40:04.848Z,13.90
2018-09-15T02:42:34.271Z,13.90
2018-09-15T02:45:04.244Z,13.90
2018-09-15T02:47:33.248Z,13.90
2018-09-15T02:50:02.459Z,13.90
2018-09-15T02:52:50.294Z,13.90
2018-09-15T02:55:19.660Z,13.90
2018-09-15T02:58:06.217Z,13.90
2018-09-15T03:00:35.962Z,13.80
2018-09-15T03:06:33.507Z,13.70
2018-09-15T03:09:02.973Z,13.70
2018-09-15T03:11:32.111Z,13.70
2018-09-15T03:16:46.394Z,13.80
2018-09-15T03:19:15.717Z,13.80
2018-09-15T03:21:45.113Z,13.80
2018-09-15T03:24:15.412Z,13.80
2018-09-15T03:26:44.785Z,13.80
2018-09-15T03:29:14.194Z,13.80
2018-09-15T03:31:50.182Z,13.70
2018-09-15T03:34:21.077Z,13.70
2018-09-15T03:36:50.823Z,13.70
2018-09-15T03:39:20.709Z,13.60
2018-09-15T03:41:50.543Z,13.60
2018-09-15T03:44:19.702Z,13.50
2018-09-15T03:46:49.943Z,13.50
2018-09-15T03:49:19.091Z,13.30
2018-09-15T03:51:48.137Z,13.20
2018-09-15T03:54:21.967Z,13.20
2018-09-15T03:56:51.516Z,13.10
2018-09-15T03:59:20.909Z,13.10
2018-09-15T04:01:51.238Z,13.00
2018-09-15T04:04:21.555Z,13.00
2018-09-15T04:06:52.116Z,13.00
2018-09-15T04:09:21.591Z,13.00
2018-09-15T04:11:52.293Z,13.10
2018-09-15T04:14:21.411Z,13.10
2018-09-15T04:16:50.508Z,13.10
2018-09-15T04:19:20.451Z,13.00
2018-09-15T04:21:49.717Z,13.00
2018-09-15T04:24:18.902Z,12.90
2018-09-15T04:26:48.102Z,12.90
2018-09-15T04:29:17.786Z,12.80
2018-09-15T04:31:46.881Z,12.80
2018-09-15T04:34:16.101Z,12.70
2018-09-15T04:36:45.206Z,12.70
2018-09-15T04:39:14.402Z,12.60
2018-09-15T04:41:43.595Z,12.60
2018-09-15T04:44:13.589Z,12.60
2018-09-15T04:46:44.816Z,12.60
2018-09-15T04:49:15.414Z,12.70
2018-09-15T04:51:45.818Z,12.70
2018-09-15T04:54:19.479Z,12.70
2018-09-15T04:56:49.258Z,12.80
2018-09-15T04:59:18.458Z,12.80
2018-09-15T05:01:47.759Z,12.90
2018-09-15T05:04:24.735Z,12.90
2018-09-15T05:06:54.804Z,13.00
2018-09-15T05:09:40.522Z,13.00
2018-09-15T05:12:09.939Z,13.10
2018-09-15T05:14:39.174Z,13.20
2018-09-15T05:17:08.444Z,13.20
2018-09-15T05:19:38.916Z,13.20
2018-09-15T05:22:20.702Z,13.20
2018-09-15T05:24:49.983Z,13.20
2018-09-15T05:27:20.730Z,13.10
2018-09-15T05:29:50.382Z,13.10
2018-09-15T05:32:19.549Z,13.20
2018-09-15T05:34:51.418Z,13.20
2018-09-15T05:37:21.569Z,13.30
2018-09-15T05:39:53.267Z,13.30
2018-09-15T05:42:22.768Z,13.30
2018-09-15T05:45:51.922Z,13.20
2018-09-15T05:48:24.434Z,13.20
2018-09-15T05:51:00.301Z,13.20
2018-09-15T05:53:30.128Z,13.20
2018-09-15T05:56:52.566Z,13.30
2018-09-15T05:59:24.564Z,13.40
2018-09-15T06:01:55.572Z,13.40
2018-09-15T06:18:27.008Z,13.40
2018-09-15T06:20:58.403Z,13.50
2018-09-15T06:23:58.281Z,13.50
2018-09-15T06:26:29.212Z,13.60
2018-09-15T06:28:59.692Z,13.80
2018-09-15T06:31:41.936Z,13.80
2018-09-15T06:34:11.607Z,13.80
2018-09-15T06:36:40.894Z,13.90
2018-09-15T06:39:11.470Z,13.90
2018-09-15T06:41:41.164Z,13.90
2018-09-15T06:44:10.463Z,13.90
2018-09-15T06:46:59.404Z,13.90
2018-09-15T06:49:28.485Z,14.00
2018-09-15T06:51:57.530Z,14.00
2018-09-15T06:54:30.041Z,14.10
2018-09-15T06:57:02.117Z,14.10
2018-09-15T07:02:49.996Z,14.00
2018-09-15T07:05:24.119Z,14.00
2018-09-15T07:07:55.831Z,14.00
2018-09-15T07:10:24.999Z,13.90
2018-09-15T07:12:55.583Z,14.00
2018-09-15T07:15:49.759Z,14.20
2018-09-15T07:18:22.554Z,14.50
2018-09-15T07:20:53.461Z,14.70
2018-09-15T07:23:23.836Z,14.80
2018-09-15T07:25:53.174Z,14.90
2018-09-15T07:28:22.383Z,14.90
2018-09-15T07:30:52.441Z,15.00
2018-09-15T07:33:22.187Z,15.00
2018-09-15T07:35:51.375Z,15.10
2018-09-15T07:38:54.295Z,15.20
2018-09-15T07:41:28.790Z,15.30
2018-09-15T07:44:22.792Z,15.30
2018-09-15T07:46:52.068Z,15.40
2018-09-15T07:49:21.287Z,15.50
2018-09-15T07:51:55.407Z,15.50
2018-09-15T07:54:24.488Z,15.60
2018-09-15T07:56:53.961Z,15.70
2018-09-15T07:59:24.588Z,15.80
2018-09-15T08:01:54.205Z,15.90
2018-09-15T08:04:23.474Z,15.90
2018-09-15T08:06:55.030Z,15.70
2018-09-15T08:09:24.659Z,15.50
2018-09-15T08:12:19.883Z,15.40
2018-09-15T08:14:50.132Z,15.50
2018-09-15T08:17:22.927Z,15.60
2018-09-15T08:23:03.352Z,15.90
2018-09-15T08:25:32.549Z,16.20
2018-09-15T08:28:01.766Z,16.30
2018-09-15T08:30:30.920Z,16.50
2018-09-15T08:33:00.275Z,16.50
2018-09-15T08:35:30.514Z,16.60
2018-09-15T08:38:00.133Z,16.70
2018-09-15T08:40:30.047Z,16.70
2018-09-15T08:43:01.324Z,16.60
2018-09-15T08:45:32.369Z,16.40
2018-09-15T08:48:27.683Z,16.30
2018-09-15T08:50:56.666Z,16.20
2018-09-15T08:53:25.942Z,16.40
2018-09-15T08:55:55.049Z,16.70
2018-09-15T08:58:24.197Z,17.00
2018-09-15T09:00:53.317Z,17.30
2018-09-15T09:03:22.480Z,17.70
2018-09-15T09:05:51.823Z,18.00
2018-09-15T09:08:21.121Z,18.10
2018-09-15T09:10:50.377Z,18.00
2018-09-15T09:13:19.490Z,18.00
2018-09-15T09:15:48.784Z,18.00
2018-09-15T09:18:17.853Z,17.80
2018-09-15T09:20:47.172Z,17.80
2018-09-15T09:23:16.236Z,17.80
2018-09-15T09:25:45.308Z,17.70
2018-09-15T09:28:14.601Z,17.70
2018-09-15T09:30:43.938Z,17.60
2018-09-15T09:33:13.016Z,17.70
2018-09-15T09:35:42.050Z,17.80
2018-09-15T09:38:11.927Z,18.00
2018-09-15T09:40:49.666Z,17.90
2018-09-15T09:43:19.521Z,17.90
2018-09-15T09:45:48.820Z,17.80
2018-09-15T09:48:19.022Z,17.80
2018-09-15T09:50:48.818Z,18.00
2018-09-15T09:53:18.161Z,18.10
2018-09-15T09:55:47.462Z,18.20
2018-09-15T09:58:17.567Z,18.30
2018-09-15T10:00:52.012Z,18.40
2018-09-15T10:03:21.182Z,18.60
2018-09-15T10:05:50.644Z,18.60
2018-09-15T10:08:19.895Z,18.60
2018-09-15T10:10:49.158Z,18.50
2018-09-15T10:13:18.313Z,18.50
2018-09-15T10:15:48.276Z,18.50
2018-09-15T10:18:17.288Z,18.60
2018-09-15T10:20:47.254Z,18.80
2018-09-15T10:23:17.243Z,19.00
2018-09-15T10:25:47.286Z,19.10
2018-09-15T10:28:16.369Z,19.20
2018-09-15T10:30:45.419Z,19.10
2018-09-15T10:33:15.796Z,19.10
2018-09-15T10:35:44.958Z,18.90
2018-09-15T10:38:14.539Z,18.80
2018-09-15T10:40:43.760Z,18.80
2018-09-15T10:43:13.183Z,18.80
2018-09-15T10:45:42.278Z,18.80
2018-09-15T10:48:11.557Z,18.70
2018-09-15T10:50:41.604Z,18.80
2018-09-15T10:53:10.716Z,18.80
2018-09-15T10:55:39.778Z,18.80
2018-09-15T10:58:09.154Z,19.00
2018-09-15T11:00:39.909Z,19.00
2018-09-15T11:03:08.845Z,19.00
2018-09-15T11:05:38.059Z,18.90
2018-09-15T11:08:11.251Z,19.10
2018-09-15T11:10:41.298Z,19.20
2018-09-15T11:13:26.687Z,19.00
2018-09-15T11:16:16.996Z,18.90
2018-09-15T11:18:46.345Z,18.90
2018-09-15T11:21:15.812Z,18.80
2018-09-15T11:23:44.974Z,18.80
2018-09-15T11:26:14.297Z,18.80
2018-09-15T11:28:44.309Z,19.00
2018-09-15T11:31:15.634Z,19.10
2018-09-15T11:33:47.224Z,19.00
2018-09-15T11:36:16.264Z,19.00
2018-09-15T11:38:48.298Z,19.10
2018-09-15T11:41:17.969Z,19.40
2018-09-15T11:43:48.355Z,19.70
2018-09-15T11:46:19.415Z,19.60
2018-09-15T11:48:48.650Z,19.40
2018-09-15T11:51:17.641Z,19.40
2018-09-15T11:53:47.559Z,19.30
2018-09-15T11:56:16.621Z,18.40
2018-09-15T11:58:45.897Z,18.00
2018-09-15T12:01:15.145Z,17.60
2018-09-15T12:03:44.509Z,17.10
2018-09-15T12:06:13.572Z,16.70
2018-09-15T12:08:42.821Z,16.50
2018-09-15T12:11:12.009Z,16.30
2018-09-15T12:13:41.647Z,15.90
2018-09-15T12:16:10.984Z,15.00
2018-09-15T12:18:42.019Z,14.30
2018-09-15T12:21:11.526Z,13.60
2018-09-15T12:23:42.060Z,13.30
2018-09-15T12:26:11.677Z,13.20
2018-09-15T12:28:41.859Z,13.20
2018-09-15T12:31:12.303Z,13.30
2018-09-15T12:33:41.703Z,13.30
2018-09-15T12:36:11.054Z,13.20
2018-09-15T12:38:40.572Z,13.10
2018-09-15T12:41:09.974Z,13.10
2018-09-15T12:43:39.415Z,13.10
2018-09-15T12:46:11.901Z,13.10
2018-09-15T12:48:41.405Z,13.10
2018-09-15T12:51:10.725Z,13.30
2018-09-15T12:53:40.622Z,13.50
2018-09-15T12:56:09.790Z,13.70
2018-09-15T12:58:39.075Z,14.00
2018-09-15T13:01:08.394Z,14.30
2018-09-15T13:03:37.652Z,14.60
2018-09-15T13:06:07.490Z,14.90
2018-09-15T13:08:36.749Z,15.00
2018-09-15T13:11:08.552Z,15.00
2018-09-15T13:13:38.571Z,15.00
2018-09-15T13:16:08.004Z,15.10
2018-09-15T13:18:37.207Z,15.10
2018-09-15T13:21:07.067Z,15.20
2018-09-15T13:23:38.453Z,15.20
2018-09-15T13:26:10.640Z,15.40
2018-09-15T13:28:40.627Z,15.60
2018-09-15T13:31:10.610Z,15.80
2018-09-15T13:33:40.838Z,16.00
2018-09-15T13:36:09.916Z,16.30
2018-09-15T13:38:39.290Z,16.60
2018-09-15T13:41:11.534Z,16.80
2018-09-15T13:43:41.584Z,16.80
2018-09-15T13:46:11.671Z,16.90
2018-09-15T13:48:40.638Z,17.00
2018-09-15T13:51:09.938Z,17.00
2018-09-15T13:53:39.127Z,16.90
2018-09-15T13:56:08.393Z,16.80
2018-09-15T13:58:38.107Z,16.70
2018-09-15T14:01:07.863Z,16.60
2018-09-15T14:03:37.060Z,16.60
2018-09-15T14:06:06.435Z,16.60
2018-09-15T14:08:36.047Z,16.70
2018-09-15T14:11:05.283Z,16.80
2018-09-15T14:13:34.544Z,17.00
2018-09-15T14:16:03.863Z,17.10
2018-09-15T14:18:33.108Z,17.10
2018-09-15T14:21:04.600Z,17.10
2018-09-15T14:23:55.163Z,17.20
2018-09-15T14:26:51.131Z,17.30
2018-09-15T14:29:23.954Z,17.30
2018-09-15T14:32:20.207Z,17.40
2018-09-15T14:34:51.928Z,17.40
2018-09-15T14:40:18.417Z,17.60
2018-09-15T14:42:47.621Z,17.70
2018-09-15T14:45:20.314Z,17.80
2018-09-15T14:47:50.560Z,17.80
2018-09-15T14:50:25.003Z,17.90
2018-09-15T14:52:54.543Z,18.10
2018-09-15T14:55:23.920Z,18.00
2018-09-15T14:57:53.564Z,17.90
2018-09-15T16:07:08.883Z,17.80
2018-09-15T16:09:38.856Z,17.90
2018-09-15T16:12:09.421Z,17.90
2018-09-15T16:14:38.642Z,17.90
2018-09-15T16:17:08.196Z,17.80
2018-09-15T16:19:59.255Z,17.70
2018-09-15T16:22:30.223Z,17.70
2018-09-15T16:24:59.526Z,17.70
2018-09-15T16:27:28.684Z,17.70
2018-09-15T16:29:57.890Z,17.70
2018-09-15T16:32:47.074Z,17.70
2018-09-15T16:35:17.440Z,17.60
2018-09-15T16:37:46.578Z,17.60
2018-09-15T16:40:15.645Z,17.50
2018-09-15T16:42:44.756Z,17.50
2018-09-15T16:45:13.874Z,17.40
2018-09-15T16:47:43.230Z,17.40
2018-09-15T16:50:12.416Z,17.40
2018-09-15T16:52:41.519Z,17.40
2018-09-15T16:55:10.731Z,17.30
2018-09-15T16:57:39.975Z,17.20
2018-09-15T17:00:09.050Z,17.10
2018-09-15T17:02:38.954Z,17.00
2018-09-15T17:05:08.007Z,16.90
2018-09-15T17:07:37.016Z,16.70
2018-09-15T17:10:06.276Z,16.60
2018-09-15T17:12:35.243Z,16.50
2018-09-15T17:15:14.363Z,16.40
2018-09-15T17:17:43.565Z,16.30
2018-09-15T17:20:12.654Z,16.30
2018-09-15T17:22:41.908Z,16.30
2018-09-15T17:25:11.040Z,16.30
2018-09-15T17:27:40.063Z,16.40
2018-09-15T17:30:10.849Z,16.40
2018-09-15T17:32:43.720Z,16.30
2018-09-15T17:35:12.781Z,16.10
2018-09-15T17:37:41.811Z,16.00
2018-09-15T17:40:10.759Z,15.90
2018-09-15T17:42:40.631Z,15.90
2018-09-15T17:45:09.866Z,15.80
2018-09-15T17:47:41.096Z,15.70
2018-09-15T17:50:10.503Z,15.50
2018-09-15T17:52:39.729Z,15.40
2018-09-15T17:55:09.996Z,15.40
2018-09-15T17:57:38.986Z,15.40
2018-09-15T18:00:08.428Z,15.30
2018-09-15T18:02:37.505Z,15.30
2018-09-15T18:05:06.738Z,15.30
2018-09-15T18:07:55.552Z,15.30
2018-09-15T18:13:53.089Z,15.30
2018-09-15T18:16:24.555Z,15.30
2018-09-15T18:53:53.463Z,15.30
2018-09-15T18:56:22.586Z,15.10
2018-09-15T18:58:51.554Z,15.10
2018-09-15T19:01:21.271Z,15.20
2018-09-15T19:03:51.232Z,15.20
2018-09-15T19:06:20.295Z,15.20
2018-09-15T19:08:49.778Z,15.20
2018-09-15T19:11:18.957Z,15.10
2018-09-15T19:13:48.278Z,15.10
2018-09-15T19:16:17.295Z,15.00
2018-09-15T19:18:46.597Z,14.90
2018-09-15T19:21:15.775Z,14.80
2018-09-15T19:23:44.817Z,14.90
2018-09-15T19:26:15.403Z,14.90
2018-09-15T19:28:52.405Z,14.80
2018-09-15T19:31:23.630Z,14.80
2018-09-15T19:34:00.321Z,14.80
2018-09-15T19:36:31.049Z,14.80
2018-09-15T19:39:00.362Z,14.80
2018-09-15T19:41:33.325Z,14.70
2018-09-15T19:44:03.787Z,14.70
2018-09-15T19:46:34.258Z,14.70
2018-09-15T19:49:03.744Z,14.60
2018-09-15T19:51:33.060Z,14.60
2018-09-15T19:54:02.197Z,14.60
2018-09-15T19:56:31.138Z,14.60
2018-09-15T19:59:04.267Z,14.50
2018-09-15T20:01:33.331Z,14.50
2018-09-15T20:04:02.444Z,14.40
2018-09-15T20:06:32.447Z,14.40
2018-09-15T20:09:01.632Z,14.40
2018-09-15T20:11:30.780Z,14.30
2018-09-15T20:13:59.879Z,14.30
2018-09-15T20:16:27.894Z,14.20
2018-09-15T20:18:56.309Z,14.20
2018-09-15T20:21:24.311Z,14.10
2018-09-15T20:23:53.472Z,14.10
2018-09-15T20:26:22.482Z,14.10
2018-09-15T20:28:51.490Z,14.10
2018-09-15T20:31:20.857Z,14.00
2018-09-15T20:33:50.688Z,14.00
2018-09-15T20:36:19.835Z,14.00
2018-09-15T20:38:48.870Z,13.90
2018-09-15T20:41:19.678Z,13.90
2018-09-15T20:43:48.775Z,13.90
2018-09-15T20:46:17.902Z,13.90
2018-09-15T20:48:46.986Z,13.90
2018-09-15T20:54:09.278Z,13.80
2018-09-15T20:56:38.450Z,13.80
2018-09-15T20:59:07.456Z,13.70
2018-09-15T21:01:36.481Z,13.70
2018-09-15T21:04:05.743Z,13.70
2018-09-15T21:07:23.105Z,13.70
2018-09-15T21:09:52.167Z,13.70
2018-09-15T21:12:21.337Z,13.60
2018-09-15T21:14:50.364Z,13.60
2018-09-15T21:17:19.642Z,13.60
2018-09-15T21:19:48.657Z,13.60
2018-09-15T21:22:17.733Z,13.60
2018-09-15T21:24:47.189Z,13.60
2018-09-15T21:27:16.276Z,13.60
2018-09-15T21:29:45.358Z,13.60
2018-09-15T21:32:14.527Z,13.70
2018-09-15T21:34:43.885Z,13.60
2018-09-15T21:37:13.167Z,13.60
2018-09-15T21:39:42.340Z,13.60
2018-09-15T21:42:11.449Z,13.60
2018-09-15T21:44:40.555Z,13.60
2018-09-15T21:47:09.880Z,13.60
2018-09-15T21:49:39.221Z,13.60
2018-09-15T21:52:08.358Z,13.60
2018-09-15T21:54:37.520Z,13.60
2018-09-15T21:57:07.634Z,13.60
2018-09-15T21:59:37.482Z,13.60
2018-09-15T22:02:06.762Z,13.60
2018-09-15T22:04:37.516Z,13.70
2018-09-15T22:07:06.693Z,13.70
2018-09-15T22:09:35.946Z,13.60
2018-09-15T22:12:05.057Z,13.60
2018-09-15T22:14:34.003Z,13.60
2018-09-15T22:17:03.042Z,13.60
2018-09-15T22:19:32.316Z,13.70
2018-09-15T22:22:04.915Z,13.80
2018-09-15T22:24:33.985Z,13.80
2018-09-15T22:27:03.181Z,13.70
2018-09-15T22:29:33.139Z,13.60
2018-09-15T22:32:02.890Z,13.60
2018-09-15T22:34:32.093Z,13.60
2018-09-15T22:37:01.623Z,13.50
2018-09-15T22:39:34.293Z,13.50
2018-09-15T22:42:03.645Z,13.50
2018-09-15T22:44:33.315Z,13.50
2018-09-15T22:47:02.403Z,13.50
2018-09-15T22:49:32.640Z,13.40
2018-09-15T22:52:01.774Z,13.40
2018-09-15T22:54:30.875Z,13.40
2018-09-15T22:57:00.163Z,13.40
2018-09-15T22:59:29.153Z,13.50
2018-09-15T23:01:59.093Z,13.40
2018-09-15T23:04:29.354Z,13.50
2018-09-15T23:06:58.686Z,13.50
2018-09-15T23:09:27.784Z,13.50
2018-09-15T23:11:56.934Z,13.40
2018-09-15T23:14:26.721Z,13.40
2018-09-15T23:16:55.999Z,13.40
2018-09-15T23:19:25.183Z,13.40
2018-09-15T23:21:54.266Z,13.30
2018-09-15T23:24:24.220Z,13.40
2018-09-15T23:26:54.641Z,13.40
2018-09-15T23:29:23.906Z,13.40
2018-09-15T23:31:52.936Z,13.40
2018-09-15T23:34:22.061Z,13.40
2018-09-15T23:36:52.011Z,13.30
2018-09-15T23:39:21.177Z,13.30
2018-09-15T23:41:50.255Z,13.20
2018-09-15T23:44:19.274Z,13.10
2018-09-15T23:46:48.307Z,13.00
2018-09-15T23:49:18.487Z,13.00
2018-09-15T23:51:47.658Z,12.90
2018-09-15T23:54:16.892Z,12.90
2018-09-15T23:56:46.160Z,12.90
2018-09-15T23:59:15.396Z,12.80
